Eastry, United Kingdom
Current Conditions -  °F | °C
As of 11:50 AM on Thursday 29 Jan 2015 (Local Time) from EGMD Reporting Station
Few Clouds Few Clouds  
Wind Chill: 36°   Ceiling: Unl
Heat Index: 45°   Visibility: 6mi
Dew Point: 36°   Wind: 23mph
Humidity: 71%   Direction: 250°WSW
Pressure: 29.09"   Gusts: NA
Location:  51.25°N, 1.31°E
Report Text: EGMD 291150Z 25020KT 9999 FEW018 07/02 Q0985
Loading
Personal Weather Stations






























Interactive Weather Map New forecast layout! Learn more

10-Day Weather Forecast

Advertisements
Track Severe Weather on mobile